createdAt,value
2016-01-14T19:32:28.552Z,24.06
2016-01-14T19:34:57.963Z,23.94
2016-01-14T19:37:08.907Z,23.83
2016-01-14T19:46:00.993Z,23.39
2016-01-14T20:06:53.236Z,23.19
2016-01-14T20:09:34.556Z,23.23
2016-01-14T20:10:21.715Z,23.2
2016-01-14T20:11:44.015Z,23.2
2016-01-14T20:17:26.297Z,23.16
2016-01-14T20:23:08.670Z,23.19
2016-01-14T20:26:09.632Z,23.12
2016-01-14T20:34:39.250Z,23.12
2016-01-14T20:37:45.321Z,23.09
2016-01-14T20:43:13.444Z,23.05
2016-01-14T20:44:23.415Z,23.09
2016-01-14T20:45:25.168Z,23.04
2016-01-14T20:46:35.858Z,23.04
2016-01-14T20:49:57.010Z,23.09
2016-01-14T20:51:07.029Z,23.07
2016-01-14T20:52:21.219Z,23.05
2016-01-14T20:54:57.474Z,23.05
2016-01-14T20:56:41.261Z,23.07
2016-01-14T21:02:54.216Z,23.07
2016-01-14T21:06:14.473Z,23.07
2016-01-14T21:07:00.351Z,23.09
2016-01-14T21:09:28.391Z,23.15
2016-01-14T21:10:28.799Z,23.02
2016-01-14T21:12:28.412Z,23.13
2016-01-14T21:13:14.743Z,23.01
2016-01-14T21:14:00.229Z,23.09
2016-01-14T21:16:00.470Z,23.04
2016-01-14T21:17:14.613Z,23.02
2016-01-14T21:19:00.557Z,22.94
2016-01-14T21:20:00.543Z,22.98
2016-01-14T21:21:01.515Z,23.02
2016-01-14T21:23:01.286Z,22.95
2016-01-14T21:25:00.588Z,22.94
2016-01-14T21:26:14.919Z,22.91
2016-01-14T21:27:00.593Z,23
2016-01-14T21:28:00.596Z,22.97
2016-01-14T21:29:00.412Z,22.95
2016-01-14T21:30:00.727Z,23.02
2016-01-14T21:31:14.512Z,23.04
2016-01-14T21:32:14.920Z,22.97
2016-01-14T21:33:00.673Z,22.95
2016-01-14T21:34:00.440Z,22.98
2016-01-14T21:36:00.883Z,22.94
2016-01-14T21:37:00.495Z,22.88
2016-01-14T21:38:00.764Z,22.92
2016-01-14T21:39:00.923Z,22.79
2016-01-14T21:42:00.741Z,22.8
2016-01-14T21:45:00.578Z,22.82
2016-01-14T21:46:14.880Z,22.82
2016-01-14T21:47:00.583Z,22.8
2016-01-14T21:48:14.698Z,22.82
2016-01-14T21:50:00.826Z,22.79
2016-01-14T21:53:02.553Z,22.72
2016-01-14T21:55:00.200Z,22.64
2016-01-14T21:56:01.092Z,22.62
2016-01-14T21:57:01.095Z,22.61
2016-01-14T21:58:00.894Z,22.68
2016-01-14T21:59:00.741Z,22.7
2016-01-14T22:00:00.744Z,22.7
2016-01-14T22:01:00.730Z,22.65
2016-01-14T22:02:00.968Z,22.61
2016-01-14T22:04:01.411Z,22.57
2016-01-14T22:05:00.789Z,22.61
2016-01-14T22:06:14.885Z,22.51
2016-01-14T22:08:14.922Z,22.57
2016-01-14T22:09:01.034Z,22.51
2016-01-14T22:10:14.911Z,22.46
2016-01-14T22:11:00.368Z,22.54
2016-01-14T22:13:01.077Z,22.54
2016-01-14T22:14:01.282Z,22.51
2016-01-14T22:15:01.707Z,22.45
2016-01-14T22:16:01.428Z,22.45
2016-01-14T22:17:01.306Z,22.45
2016-01-14T22:18:01.138Z,22.49
2016-01-14T22:19:01.718Z,22.47
2016-01-14T22:21:01.191Z,22.36
2016-01-14T22:22:01.179Z,22.37
2016-01-14T22:24:15.091Z,22.42
2016-01-14T22:25:15.297Z,22.37
2016-01-14T22:26:01.222Z,22.4
2016-01-14T22:27:00.990Z,22.33
2016-01-14T22:28:01.007Z,22.36
2016-01-14T22:29:15.354Z,22.35
2016-01-14T22:30:01.076Z,22.25
2016-01-14T22:31:01.282Z,22.25
2016-01-14T22:32:15.550Z,22.22
2016-01-14T22:33:01.460Z,22.27
2016-01-14T22:35:01.102Z,22.18
2016-01-14T22:36:15.186Z,22.21
2016-01-14T22:37:01.295Z,22.25
2016-01-14T22:38:15.410Z,22.22
2016-01-14T22:39:01.113Z,22.3
2016-01-14T22:40:15.229Z,22.15
2016-01-14T22:42:15.669Z,22.17
2016-01-14T22:43:15.469Z,22.22
2016-01-14T22:44:15.268Z,22.2
2016-01-14T22:46:15.508Z,22
2016-01-14T22:47:15.276Z,22.15
2016-01-14T22:48:01.199Z,22.18
2016-01-14T22:49:01.392Z,22.18
2016-01-14T22:52:01.409Z,22.02
2016-01-14T22:54:01.179Z,22.07
2016-01-14T22:55:01.413Z,22.02
2016-01-14T22:56:15.318Z,22.03
2016-01-14T22:58:01.425Z,22.03
2016-01-14T22:59:01.239Z,21.98
2016-01-14T23:01:01.256Z,22
2016-01-14T23:02:01.867Z,21.96
2016-01-14T23:03:01.291Z,21.84
2016-01-14T23:04:01.293Z,21.86
2016-01-14T23:05:01.279Z,21.99
2016-01-14T23:07:15.408Z,21.91
2016-01-14T23:08:01.332Z,21.9
2016-01-14T23:09:15.428Z,21.88
2016-01-14T23:10:01.493Z,21.91
2016-01-14T23:12:01.542Z,21.84
2016-01-14T23:13:01.544Z,21.79
2016-01-14T23:14:15.659Z,21.8
2016-01-14T23:15:01.362Z,21.83
2016-01-14T23:16:01.600Z,21.8
2016-01-14T23:17:15.683Z,21.83
2016-01-14T23:18:01.417Z,21.79
2016-01-14T23:19:01.420Z,21.9
2016-01-14T23:20:02.220Z,21.84
2016-01-14T23:21:15.538Z,21.82
2016-01-14T23:22:01.444Z,21.83
2016-01-14T23:23:15.541Z,21.8
2016-01-14T23:25:15.764Z,21.82
2016-01-14T23:27:02.066Z,21.86
2016-01-14T23:28:01.913Z,21.83
2016-01-14T23:29:01.525Z,21.83
2016-01-14T23:30:15.825Z,21.79
2016-01-14T23:31:15.593Z,21.82
2016-01-14T23:32:01.924Z,21.8
2016-01-14T23:33:29.742Z,21.8
2016-01-14T23:34:01.788Z,21.68
2016-01-14T23:35:01.963Z,21.69
2016-01-14T23:36:01.560Z,21.68
2016-01-14T23:37:01.796Z,21.69
2016-01-14T23:38:01.846Z,21.69
2016-01-14T23:39:01.568Z,21.67
2016-01-14T23:40:15.920Z,21.72
2016-01-14T23:41:02.266Z,21.67
2016-01-14T23:42:01.832Z,21.64
2016-01-14T23:44:15.729Z,21.69
2016-01-14T23:45:02.856Z,21.68
2016-01-14T23:46:02.062Z,21.69
2016-01-14T23:47:02.095Z,21.59
2016-01-14T23:48:01.895Z,21.59
2016-01-14T23:50:15.806Z,21.67
2016-01-14T23:51:15.809Z,21.67
2016-01-14T23:52:01.938Z,21.65
2016-01-14T23:54:01.943Z,21.64
2016-01-14T23:55:01.945Z,21.64
2016-01-14T23:56:01.979Z,21.52
2016-01-14T23:57:01.748Z,21.52
2016-01-14T23:58:01.969Z,21.53
2016-01-14T23:59:15.894Z,21.49
